Language: 


Des rapports , des résumés tant et plus, au choix de chacun....


Données Historiques de Météogheer
Journalier Rapport pour Février 19, 2017 Unitée:  Les deux    Impériale   Métrique
Suivant Jour »
Journalier Hebdomadaire Mensuel Annuel Sur mesure
  Max: Min: Moyenne:
Température: 52.5 °F /  11.4 °C 32 °F /  0.0 °C 44.4 °F /  6.9 °C
Point de rosée: 48.2 °F /  9.0 °C 36.3 °F /  2.4 °C 42.4 °F /  5.8 °C
Humidité: 98% 0% 93%
Vent: 14.3mph /  23.0km/h - 5.8mph /  9.3km/h
Rafales: 17.4mph /  28.0km/h - -
Vent- - WSW
Pression: 30.3 in /  1024.9 hPa 30.1 in /  1019.9 hPa -
Pluie: 0 in /  0.0 mm    
Historical Graphs
 
 
Données tabulaires pour Février 19, 2017
Heure Température Point de rosée Pression Vent Vent Rafales Humidité Pluie Taux (Horaire) Conditions
00:01 39.9 °F /  4.4 °C 39.4 °F /  4.1 °C 30.3in /  1024.9hPa South 3.6mph /  5.8km/h 5.4mph /  8.7km/h 98% 0in /  0.0mm
00:06 39.9 °F /  4.4 °C 39.4 °F /  4.1 °C 30.3in /  1024.9hPa WSW 2.5mph /  4.0km/h 4mph /  6.4km/h 98% 0in /  0.0mm
00:11 39.9 °F /  4.4 °C 39.4 °F /  4.1 °C 30.3in /  1024.9hPa SSW 3.8mph /  6.1km/h 4.9mph /  7.9km/h 98% 0in /  0.0mm
00:21 39.7 °F /  4.3 °C 39.2 °F /  4.0 °C 30.3in /  1024.9hPa SSW 5.4mph /  8.7km/h 6.9mph /  11.1km/h 98% 0in /  0.0mm
00:26 39.7 °F /  4.3 °C 39.2 °F /  4.0 °C 30.2in /  1023.9hPa WSW 4mph /  6.4km/h 7.2mph /  11.6km/h 98% 0in /  0.0mm
00:31 39.6 °F /  4.2 °C 39 °F /  3.9 °C 30.2in /  1023.9hPa SSW 4mph /  6.4km/h 7.2mph /  11.6km/h 98% 0in /  0.0mm
00:36 39.6 °F /  4.2 °C 39 °F /  3.9 °C 30.2in /  1023.9hPa WSW 6mph /  9.7km/h 7.2mph /  11.6km/h 98% 0in /  0.0mm
00:41 39.6 °F /  4.2 °C 39 °F /  3.9 °C 30.3in /  1024.9hPa West 6.3mph /  10.1km/h 6.3mph /  10.1km/h 98% 0in /  0.0mm
00:46 39.4 °F /  4.1 °C 38.8 °F /  3.8 °C 30.3in /  1024.9hPa WSW 4.3mph /  6.9km/h 7.4mph /  11.9km/h 98% 0in /  0.0mm
00:51 39.6 °F /  4.2 °C 39 °F /  3.9 °C 30.3in /  1024.9hPa WSW 6mph /  9.7km/h 7.4mph /  11.9km/h 98% 0in /  0.0mm
00:56 39.6 °F /  4.2 °C 39 °F /  3.9 °C 30.3in /  1024.9hPa SW 4mph /  6.4km/h 7.4mph /  11.9km/h 98% 0in /  0.0mm
01:01 39.6 °F /  4.2 °C 39 °F /  3.9 °C 30.3in /  1024.9hPa WSW 5.8mph /  9.3km/h 7.4mph /  11.9km/h 98% 0in /  0.0mm
01:06 39.4 °F /  4.1 °C 38.8 °F /  3.8 °C 30.3in /  1024.9hPa WSW 6.5mph /  10.5km/h 7.8mph /  12.6km/h 98% 0in /  0.0mm
01:11 39.4 °F /  4.1 °C 38.8 °F /  3.8 °C 30.3in /  1024.9hPa West 5.8mph /  9.3km/h 7.8mph /  12.6km/h 98% 0in /  0.0mm
01:16 39.4 °F /  4.1 °C 38.8 °F /  3.8 °C 30.3in /  1024.9hPa WSW 6mph /  9.7km/h 7.6mph /  12.2km/h 98% 0in /  0.0mm
01:21 39.4 °F /  4.1 °C 38.8 °F /  3.8 °C 30.3in /  1024.9hPa SW 6.3mph /  10.1km/h 8.1mph /  13.0km/h 98% 0in /  0.0mm
01:26 39.2 °F /  4.0 °C 38.7 °F /  3.7 °C 30.2in /  1023.9hPa WSW 5.8mph /  9.3km/h 8.1mph /  13.0km/h 98% 0in /  0.0mm
01:31 39 °F /  3.9 °C 38.5 °F /  3.6 °C 30.2in /  1023.9hPa WSW 5.6mph /  9.0km/h 7.4mph /  11.9km/h 98% 0in /  0.0mm
01:36 39 °F /  3.9 °C 38.5 °F /  3.6 °C 30.2in /  1023.9hPa SSW 8.1mph /  13.0km/h 8.1mph /  13.0km/h 98% 0in /  0.0mm
01:41 38.8 °F /  3.8 °C 38.5 °F /  3.6 °C 30.2in /  1023.9hPa SSW 5.4mph /  8.7km/h 8.1mph /  13.0km/h 98% 0in /  0.0mm
01:46 38.8 °F /  3.8 °C 38.5 °F /  3.6 °C 30.2in /  1023.9hPa SW 4mph /  6.4km/h 7.8mph /  12.6km/h 98% 0in /  0.0mm
01:51 38.8 °F /  3.8 °C 38.5 °F /  3.6 °C 30.2in /  1023.9hPa WSW 6mph /  9.7km/h 8.1mph /  13.0km/h 98% 0in /  0.0mm
01:56 38.8 °F /  3.8 °C 38.5 °F /  3.6 °C 30.2in /  1023.9hPa WSW 6.9mph /  11.1km/h 8.7mph /  14.0km/h 98% 0in /  0.0mm
02:02 32 °F /  0.0 °C 38.3 °F /  3.5 °C 30.2in /  1023.9hPa SW 6mph /  9.7km/h 8.7mph /  14.0km/h 0% 0in /  0.0mm
02:07 38.7 °F /  3.7 °C 38.1 °F /  3.4 °C 30.2in /  1022.9hPa WSW 5.4mph /  8.7km/h 8.1mph /  13.0km/h 98% 0in /  0.0mm
02:12 38.7 °F /  3.7 °C 38.1 °F /  3.4 °C 30.2in /  1022.9hPa WSW 8.5mph /  13.7km/h 8.5mph /  13.7km/h 98% 0in /  0.0mm
02:17 38.7 °F /  3.7 °C 38.1 °F /  3.4 °C 30.2in /  1022.9hPa WSW 6.3mph /  10.1km/h 8.7mph /  14.0km/h 98% 0in /  0.0mm
02:22 38.7 °F /  3.7 °C 38.1 °F /  3.4 °C 30.2in /  1022.9hPa SW 6.5mph /  10.5km/h 8.7mph /  14.0km/h 98% 0in /  0.0mm
02:27 38.7 °F /  3.7 °C 38.1 °F /  3.4 °C 30.2in /  1022.9hPa WSW 5.6mph /  9.0km/h 7.8mph /  12.6km/h 98% 0in /  0.0mm
02:32 38.7 °F /  3.7 °C 38.1 °F /  3.4 °C 30.2in /  1022.9hPa SSW 4mph /  6.4km/h 6.3mph /  10.1km/h 98% 0in /  0.0mm
02:37 38.8 °F /  3.8 °C 38.5 °F /  3.6 °C 30.2in /  1022.9hPa SW 4mph /  6.4km/h 6mph /  9.7km/h 98% 0in /  0.0mm
02:42 38.8 °F /  3.8 °C 38.5 °F /  3.6 °C 30.2in /  1022.9hPa WSW 4mph /  6.4km/h 6.3mph /  10.1km/h 98% 0in /  0.0mm
02:47 38.8 °F /  3.8 °C 38.5 °F /  3.6 °C 30.2in /  1022.9hPa SW 7.2mph /  11.6km/h 7.2mph /  11.6km/h 98% 0in /  0.0mm
02:52 38.8 °F /  3.8 °C 38.5 °F /  3.6 °C 30.2in /  1022.9hPa SSW 4.3mph /  6.9km/h 7.8mph /  12.6km/h 98% 0in /  0.0mm
02:57 38.8 °F /  3.8 °C 38.5 °F /  3.6 °C 30.2in /  1022.9hPa SSW 3.1mph /  5.0km/h 7.8mph /  12.6km/h 98% 0in /  0.0mm
03:02 38.8 °F /  3.8 °C 38.5 °F /  3.6 °C 30.2in /  1022.9hPa SSW 3.4mph /  5.5km/h 7.8mph /  12.6km/h 98% 0in /  0.0mm
03:07 39 °F /  3.9 °C 38.5 °F /  3.6 °C 30.2in /  1022.9hPa WSW 4.3mph /  6.9km/h 6mph /  9.7km/h 98% 0in /  0.0mm
03:12 39 °F /  3.9 °C 38.5 °F /  3.6 °C 30.2in /  1022.9hPa SSW 5.4mph /  8.7km/h 7.6mph /  12.2km/h 98% 0in /  0.0mm
03:17 39.2 °F /  4.0 °C 38.7 °F /  3.7 °C 30.2in /  1022.9hPa SSW 4.3mph /  6.9km/h 7.6mph /  12.2km/h 98% 0in /  0.0mm
03:22 39.2 °F /  4.0 °C 38.7 °F /  3.7 °C 30.2in /  1022.9hPa SSW 7.6mph /  12.2km/h 7.8mph /  12.6km/h 98% 0in /  0.0mm
03:27 39.2 °F /  4.0 °C 38.7 °F /  3.7 °C 30.2in /  1022.9hPa SSW 4.9mph /  7.9km/h 7.8mph /  12.6km/h 98% 0in /  0.0mm
03:32 39.4 °F /  4.1 °C 38.8 °F /  3.8 °C 30.2in /  1022.9hPa WSW 5.4mph /  8.7km/h 8.1mph /  13.0km/h 98% 0in /  0.0mm
03:37 39.4 °F /  4.1 °C 38.8 °F /  3.8 °C 30.2in /  1022.9hPa WSW 4.3mph /  6.9km/h 10.3mph /  16.6km/h 98% 0in /  0.0mm
03:42 39.6 °F /  4.2 °C 39 °F /  3.9 °C 30.2in /  1022.9hPa WSW 5.8mph /  9.3km/h 10.3mph /  16.6km/h 98% 0in /  0.0mm
03:47 39.6 °F /  4.2 °C 39 °F /  3.9 °C 30.2in /  1022.9hPa SSW 5.4mph /  8.7km/h 6.3mph /  10.1km/h 98% 0in /  0.0mm
03:52 39.7 °F /  4.3 °C 39.2 °F /  4.0 °C 30.2in /  1022.9hPa SW 5.6mph /  9.0km/h 8.1mph /  13.0km/h 98% 0in /  0.0mm
03:57 39.7 °F /  4.3 °C 39.2 °F /  4.0 °C 30.2in /  1022.9hPa SW 6.3mph /  10.1km/h 8.1mph /  13.0km/h 98% 0in /  0.0mm
04:02 39.7 °F /  4.3 °C 39.2 °F /  4.0 °C 30.2in /  1022.9hPa SSW 5.8mph /  9.3km/h 6.5mph /  10.5km/h 98% 0in /  0.0mm
04:07 39.7 °F /  4.3 °C 39.2 °F /  4.0 °C 30.2in /  1021.9hPa SW 7.8mph /  12.6km/h 7.8mph /  12.6km/h 98% 0in /  0.0mm
04:12 39.7 °F /  4.3 °C 39.2 °F /  4.0 °C 30.2in /  1021.9hPa WSW 5.6mph /  9.0km/h 7.8mph /  12.6km/h 98% 0in /  0.0mm
04:17 39.7 °F /  4.3 °C 39.2 °F /  4.0 °C 30.2in /  1021.9hPa SSW 3.4mph /  5.5km/h 7.8mph /  12.6km/h 98% 0in /  0.0mm
04:22 39.7 °F /  4.3 °C 39.2 °F /  4.0 °C 30.2in /  1022.9hPa SW 5.6mph /  9.0km/h 6.5mph /  10.5km/h 98% 0in /  0.0mm
04:27 39.7 °F /  4.3 °C 39.2 °F /  4.0 °C 30.2in /  1022.9hPa SSW 4.7mph /  7.6km/h 6.5mph /  10.5km/h 98% 0in /  0.0mm
04:32 39.7 °F /  4.3 °C 39.2 °F /  4.0 °C 30.2in /  1022.9hPa WSW 6.3mph /  10.1km/h 6.5mph /  10.5km/h 98% 0in /  0.0mm
04:37 39.6 °F /  4.2 °C 39 °F /  3.9 °C 30.2in /  1022.9hPa SSW 4.9mph /  7.9km/h 7.2mph /  11.6km/h 98% 0in /  0.0mm
04:42 39.6 °F /  4.2 °C 39 °F /  3.9 °C 30.2in /  1022.9hPa SSW 5.6mph /  9.0km/h 8.7mph /  14.0km/h 98% 0in /  0.0mm
04:47 39.6 °F /  4.2 °C 39 °F /  3.9 °C 30.2in /  1022.9hPa SW 6.3mph /  10.1km/h 8.7mph /  14.0km/h 98% 0in /  0.0mm
04:52 39.4 °F /  4.1 °C 38.8 °F /  3.8 °C 30.2in /  1021.9hPa South 3.6mph /  5.8km/h 6.3mph /  10.1km/h 98% 0in /  0.0mm
04:57 39.4 °F /  4.1 °C 38.8 °F /  3.8 °C 30.2in /  1021.9hPa SW 4.3mph /  6.9km/h 6.5mph /  10.5km/h 98% 0in /  0.0mm
05:02 39.2 °F /  4.0 °C 38.7 °F /  3.7 °C 30.2in /  1021.9hPa SSW 4.3mph /  6.9km/h 6.5mph /  10.5km/h 98% 0in /  0.0mm
05:07 39.2 °F /  4.0 °C 38.7 °F /  3.7 °C 30.2in /  1022.9hPa SW 4.9mph /  7.9km/h 6.5mph /  10.5km/h 98% 0in /  0.0mm
05:12 39 °F /  3.9 °C 38.5 °F /  3.6 °C 30.2in /  1022.9hPa SW 6mph /  9.7km/h 8.7mph /  14.0km/h 98% 0in /  0.0mm
05:17 39 °F /  3.9 °C 38.5 °F /  3.6 °C 30.2in /  1022.9hPa WSW 4mph /  6.4km/h 8.7mph /  14.0km/h 98% 0in /  0.0mm
05:22 38.8 °F /  3.8 °C 38.5 °F /  3.6 °C 30.2in /  1022.9hPa Calm   6.5mph /  10.5km/h 98% 0in /  0.0mm
05:27 38.8 °F /  3.8 °C 38.5 °F /  3.6 °C 30.2in /  1022.9hPa WSW 3.6mph /  5.8km/h 5.4mph /  8.7km/h 98% 0in /  0.0mm
05:32 38.8 °F /  3.8 °C 38.5 °F /  3.6 °C 30.2in /  1022.9hPa SSW 3.6mph /  5.8km/h 5.6mph /  9.0km/h 98% 0in /  0.0mm
05:37 38.7 °F /  3.7 °C 38.1 °F /  3.4 °C 30.2in /  1022.9hPa SW 4.3mph /  6.9km/h 6mph /  9.7km/h 98% 0in /  0.0mm
05:38 38.7 °F /  3.7 °C 38.1 °F /  3.4 °C 30.2in /  1022.9hPa SSW 3.1mph /  5.0km/h 6mph /  9.7km/h 98% 0in /  0.0mm
05:43 38.7 °F /  3.7 °C 38.1 °F /  3.4 °C 30.2in /  1022.9hPa SW 2mph /  3.2km/h 6mph /  9.7km/h 98% 0in /  0.0mm
05:48 38.5 °F /  3.6 °C 37.9 °F /  3.3 °C 30.2in /  1022.9hPa SSW 3.6mph /  5.8km/h 6mph /  9.7km/h 98% 0in /  0.0mm
05:53 38.5 °F /  3.6 °C 37.9 °F /  3.3 °C 30.2in /  1022.9hPa SW 2.7mph /  4.3km/h 4mph /  6.4km/h 98% 0in /  0.0mm
05:54 38.5 °F /  3.6 °C 37.9 °F /  3.3 °C 30.2in /  1022.9hPa SSW 1.6mph /  2.6km/h 3.8mph /  6.1km/h 98% 0in /  0.0mm
05:59 38.5 °F /  3.6 °C 37.9 °F /  3.3 °C 30.2in /  1022.9hPa SSW 2.7mph /  4.3km/h 5.6mph /  9.0km/h 98% 0in /  0.0mm
06:04 38.5 °F /  3.6 °C 37.9 °F /  3.3 °C 30.2in /  1022.9hPa SW 2.9mph /  4.7km/h 5.6mph /  9.0km/h 98% 0in /  0.0mm
06:09 38.5 °F /  3.6 °C 37.9 °F /  3.3 °C 30.2in /  1022.9hPa Calm   4.3mph /  6.9km/h 98% 0in /  0.0mm
06:14 38.5 °F /  3.6 °C 37.9 °F /  3.3 °C 30.2in /  1022.9hPa SSW 2.9mph /  4.7km/h 4.3mph /  6.9km/h 98% 0in /  0.0mm
06:19 38.5 °F /  3.6 °C 37.9 °F /  3.3 °C 30.2in /  1022.9hPa SSW 1.1mph /  1.8km/h 3.8mph /  6.1km/h 98% 0in /  0.0mm
06:24 38.5 °F /  3.6 °C 37.8 °F /  3.2 °C 30.2in /  1022.9hPa South 1.1mph /  1.8km/h 4mph /  6.4km/h 98% 0in /  0.0mm
06:29 38.5 °F /  3.6 °C 37.8 °F /  3.2 °C 30.2in /  1022.9hPa SSW 3.1mph /  5.0km/h 4mph /  6.4km/h 98% 0in /  0.0mm
06:34 38.5 °F /  3.6 °C 37.8 °F /  3.2 °C 30.2in /  1022.9hPa South 3.8mph /  6.1km/h 4mph /  6.4km/h 98% 0in /  0.0mm
06:39 38.1 °F /  3.4 °C 37.8 °F /  3.2 °C 30.2in /  1021.9hPa SSW 5.4mph /  8.7km/h 5.6mph /  9.0km/h 98% 0in /  0.0mm
06:44 38.1 °F /  3.4 °C 37.8 °F /  3.2 °C 30.2in /  1021.9hPa SSW 2.9mph /  4.7km/h 5.6mph /  9.0km/h 98% 0in /  0.0mm
06:49 37.9 °F /  3.3 °C 37.6 °F /  3.1 °C 30.2in /  1021.9hPa Calm   4.3mph /  6.9km/h 98% 0in /  0.0mm
06:54 37.9 °F /  3.3 °C 37.6 °F /  3.1 °C 30.2in /  1022.9hPa Calm   3.1mph /  5.0km/h 98% 0in /  0.0mm
06:59 37.9 °F /  3.3 °C 37.6 °F /  3.1 °C 30.2in /  1022.9hPa SSW 3.1mph /  5.0km/h 4.3mph /  6.9km/h 98% 0in /  0.0mm
07:04 37.9 °F /  3.3 °C 37.6 °F /  3.1 °C 30.2in /  1022.9hPa Calm   4.9mph /  7.9km/h 98% 0in /  0.0mm
07:09 37.9 °F /  3.3 °C 37.6 °F /  3.1 °C 30.2in /  1021.9hPa South 3.6mph /  5.8km/h 4.9mph /  7.9km/h 98% 0in /  0.0mm
07:14 37.8 °F /  3.2 °C 37.2 °F /  2.9 °C 30.2in /  1021.9hPa South 3.8mph /  6.1km/h 4.3mph /  6.9km/h 98% 0in /  0.0mm
07:19 37.6 °F /  3.1 °C 37 °F /  2.8 °C 30.2in /  1021.9hPa Calm   4.7mph /  7.6km/h 98% 0in /  0.0mm
07:24 37.6 °F /  3.1 °C 37 °F /  2.8 °C 30.2in /  1021.9hPa Calm   4.7mph /  7.6km/h 98% 0in /  0.0mm
07:29 37.2 °F /  2.9 °C 36.9 °F /  2.7 °C 30.2in /  1021.9hPa Calm   3.1mph /  5.0km/h 98% 0in /  0.0mm
07:34 36.9 °F /  2.7 °C 36.3 °F /  2.4 °C 30.2in /  1021.9hPa South 2.7mph /  4.3km/h 3.4mph /  5.5km/h 98% 0in /  0.0mm
07:39 36.9 °F /  2.7 °C 36.3 °F /  2.4 °C 30.2in /  1021.9hPa Calm   3.4mph /  5.5km/h 98% 0in /  0.0mm
07:44 36.9 °F /  2.7 °C 36.3 °F /  2.4 °C 30.2in /  1021.9hPa Calm   3.1mph /  5.0km/h 98% 0in /  0.0mm
07:49 36.9 °F /  2.7 °C 36.3 °F /  2.4 °C 30.2in /  1021.9hPa Calm   3.1mph /  5.0km/h 98% 0in /  0.0mm
07:54 36.9 °F /  2.7 °C 36.3 °F /  2.4 °C 30.2in /  1021.9hPa WSW 1.1mph /  1.8km/h 3.4mph /  5.5km/h 98% 0in /  0.0mm
07:59 36.9 °F /  2.7 °C 36.3 °F /  2.4 °C 30.2in /  1021.9hPa Calm   3.4mph /  5.5km/h 98% 0in /  0.0mm
08:04 36.9 °F /  2.7 °C 36.3 °F /  2.4 °C 30.2in /  1021.9hPa SSW 4.9mph /  7.9km/h 4.9mph /  7.9km/h 98% 0in /  0.0mm
08:09 36.9 °F /  2.7 °C 36.3 °F /  2.4 °C 30.2in /  1021.9hPa SSW 4.7mph /  7.6km/h 5.6mph /  9.0km/h 98% 0in /  0.0mm
08:14 36.9 °F /  2.7 °C 36.3 °F /  2.4 °C 30.2in /  1021.9hPa SSW 3.6mph /  5.8km/h 5.6mph /  9.0km/h 98% 0in /  0.0mm
08:20 37 °F /  2.8 °C 36.7 °F /  2.6 °C 30.2in /  1021.9hPa SSW 2.9mph /  4.7km/h 4.3mph /  6.9km/h 98% 0in /  0.0mm
08:25 37.2 °F /  2.9 °C 36.9 °F /  2.7 °C 30.2in /  1021.9hPa SW 2.7mph /  4.3km/h 4.7mph /  7.6km/h 98% 0in /  0.0mm
08:30 37.6 °F /  3.1 °C 37 °F /  2.8 °C 30.2in /  1021.9hPa Calm   4.7mph /  7.6km/h 98% 0in /  0.0mm
08:35 37.6 °F /  3.1 °C 37 °F /  2.8 °C 30.2in /  1021.9hPa SW 2.2mph /  3.5km/h 4.3mph /  6.9km/h 98% 0in /  0.0mm
08:40 37.8 °F /  3.2 °C 37.2 °F /  2.9 °C 30.2in /  1021.9hPa South 1.6mph /  2.6km/h 3.8mph /  6.1km/h 98% 0in /  0.0mm
08:45 37.9 °F /  3.3 °C 37.6 °F /  3.1 °C 30.2in /  1021.9hPa Calm   3.8mph /  6.1km/h 98% 0in /  0.0mm
08:50 38.5 °F /  3.6 °C 37.8 °F /  3.2 °C 30.2in /  1021.9hPa SW 4.7mph /  7.6km/h 4.7mph /  7.6km/h 98% 0in /  0.0mm
08:55 38.5 °F /  3.6 °C 37.9 °F /  3.3 °C 30.2in /  1022.9hPa WSW 2.5mph /  4.0km/h 4.7mph /  7.6km/h 98% 0in /  0.0mm
09:00 39 °F /  3.9 °C 38.5 °F /  3.6 °C 30.2in /  1022.9hPa WSW 2.7mph /  4.3km/h 4.7mph /  7.6km/h 98% 0in /  0.0mm
09:05 39.4 °F /  4.1 °C 38.8 °F /  3.8 °C 30.2in /  1022.9hPa Calm   3.6mph /  5.8km/h 98% 0in /  0.0mm
09:10 39.7 °F /  4.3 °C 39.2 °F /  4.0 °C 30.2in /  1022.9hPa Calm   3.4mph /  5.5km/h 98% 0in /  0.0mm
09:15 40.1 °F /  4.5 °C 39.6 °F /  4.2 °C 30.2in /  1022.9hPa Calm   3.1mph /  5.0km/h 98% 0in /  0.0mm
09:20 40.3 °F /  4.6 °C 39.7 °F /  4.3 °C 30.2in /  1022.9hPa SW 4mph /  6.4km/h 4.9mph /  7.9km/h 98% 0in /  0.0mm
09:25 40.6 °F /  4.8 °C 40.1 °F /  4.5 °C 30.2in /  1022.9hPa SW 5.6mph /  9.0km/h 5.6mph /  9.0km/h 98% 0in /  0.0mm
09:30 40.8 °F /  4.9 °C 40.3 °F /  4.6 °C 30.2in /  1022.9hPa WSW 3.8mph /  6.1km/h 6mph /  9.7km/h 98% 0in /  0.0mm
09:35 41.2 °F /  5.1 °C 40.6 °F /  4.8 °C 30.2in /  1022.9hPa WSW 5.6mph /  9.0km/h 6.3mph /  10.1km/h 98% 0in /  0.0mm
09:40 41.5 °F /  5.3 °C 41 °F /  5.0 °C 30.2in /  1022.9hPa WSW 6mph /  9.7km/h 7.4mph /  11.9km/h 98% 0in /  0.0mm
09:45 41.9 °F /  5.5 °C 41.4 °F /  5.2 °C 30.2in /  1022.9hPa WSW 6.3mph /  10.1km/h 8.1mph /  13.0km/h 98% 0in /  0.0mm
09:50 42.1 °F /  5.6 °C 41.5 °F /  5.3 °C 30.2in /  1022.9hPa WSW 7.6mph /  12.2km/h 8.1mph /  13.0km/h 98% 0in /  0.0mm
09:55 42.4 °F /  5.8 °C 41.9 °F /  5.5 °C 30.2in /  1021.9hPa SW 5.4mph /  8.7km/h 11mph /  17.7km/h 98% 0in /  0.0mm
10:00 42.8 °F /  6.0 °C 42.3 °F /  5.7 °C 30.2in /  1021.9hPa WSW 6.5mph /  10.5km/h 11mph /  17.7km/h 98% 0in /  0.0mm
10:01 43 °F /  6.1 °C 42.4 °F /  5.8 °C 30.2in /  1021.9hPa WSW 7.8mph /  12.6km/h 11mph /  17.7km/h 98% 0in /  0.0mm
10:06 43.3 °F /  6.3 °C 42.8 °F /  6.0 °C 30.2in /  1021.9hPa WSW 6.3mph /  10.1km/h 11mph /  17.7km/h 98% 0in /  0.0mm
10:11 44.1 °F /  6.7 °C 43.5 °F /  6.4 °C 30.2in /  1021.9hPa SW 6mph /  9.7km/h 11mph /  17.7km/h 98% 0in /  0.0mm
10:16 44.4 °F /  6.9 °C 44.1 °F /  6.7 °C 30.2in /  1021.9hPa WSW 6.7mph /  10.8km/h 9.2mph /  14.8km/h 98% 0in /  0.0mm
10:21 45 °F /  7.2 °C 44.2 °F /  6.8 °C 30.2in /  1021.9hPa WSW 8.1mph /  13.0km/h 10.1mph /  16.3km/h 98% 0in /  0.0mm
10:26 45.9 °F /  7.7 °C 45.1 °F /  7.3 °C 30.2in /  1021.9hPa WSW 6.3mph /  10.1km/h 10.1mph /  16.3km/h 98% 0in /  0.0mm
10:31 45.7 °F /  7.6 °C 45.1 °F /  7.3 °C 30.2in /  1021.9hPa SSW 6.5mph /  10.5km/h 9.8mph /  15.8km/h 98% 0in /  0.0mm
10:36 45.7 °F /  7.6 °C 45.1 °F /  7.3 °C 30.2in /  1021.9hPa WSW 6mph /  9.7km/h 8.5mph /  13.7km/h 98% 0in /  0.0mm
10:41 46.2 °F /  7.9 °C 45.9 °F /  7.7 °C 30.2in /  1021.9hPa WSW 7.4mph /  11.9km/h 10.3mph /  16.6km/h 98% 0in /  0.0mm
10:46 46.8 °F /  8.2 °C 46.2 °F /  7.9 °C 30.2in /  1021.9hPa WSW 7.8mph /  12.6km/h 10.7mph /  17.2km/h 98% 0in /  0.0mm
10:51 46.9 °F /  8.3 °C 46.6 °F /  8.1 °C 30.2in /  1021.9hPa WSW 8.1mph /  13.0km/h 11mph /  17.7km/h 98% 0in /  0.0mm
10:56 46.8 °F /  8.2 °C 46.2 °F /  7.9 °C 30.2in /  1021.9hPa WSW 7.8mph /  12.6km/h 13.2mph /  21.2km/h 98% 0in /  0.0mm
11:01 47.5 °F /  8.6 °C 46.9 °F /  8.3 °C 30.2in /  1021.9hPa WSW 9.6mph /  15.4km/h 13.2mph /  21.2km/h 98% 0in /  0.0mm
11:06 48 °F /  8.9 °C 47.1 °F /  8.4 °C 30.2in /  1021.9hPa WSW 10.1mph /  16.3km/h 13mph /  20.9km/h 97% 0in /  0.0mm
11:11 48 °F /  8.9 °C 46.9 °F /  8.3 °C 30.2in /  1021.9hPa West 8.1mph /  13.0km/h 13mph /  20.9km/h 96% 0in /  0.0mm
11:16 47.8 °F /  8.8 °C 46.6 °F /  8.1 °C 30.2in /  1021.9hPa WSW 11.9mph /  19.1km/h 13.2mph /  21.2km/h 95% 0in /  0.0mm
11:21 48 °F /  8.9 °C 46.8 °F /  8.2 °C 30.2in /  1021.9hPa WSW 8.5mph /  13.7km/h 13.4mph /  21.6km/h 95% 0in /  0.0mm
11:26 48 °F /  8.9 °C 46.4 °F /  8.0 °C 30.2in /  1022.9hPa West 13mph /  20.9km/h 13.4mph /  21.6km/h 94% 0in /  0.0mm
11:31 48.2 °F /  9.0 °C 46.6 °F /  8.1 °C 30.2in /  1022.9hPa WSW 8.1mph /  13.0km/h 13mph /  20.9km/h 94% 0in /  0.0mm
11:36 48 °F /  8.9 °C 46 °F /  7.8 °C 30.2in /  1022.9hPa WSW 7.8mph /  12.6km/h 14.3mph /  23.0km/h 93% 0in /  0.0mm
11:41 48 °F /  8.9 °C 46 °F /  7.8 °C 30.2in /  1022.9hPa WSW 10.3mph /  16.6km/h 14.3mph /  23.0km/h 93% 0in /  0.0mm
11:46 48.4 °F /  9.1 °C 46.6 °F /  8.1 °C 30.2in /  1022.9hPa West 10.1mph /  16.3km/h 13.9mph /  22.4km/h 93% 0in /  0.0mm
11:51 48.4 °F /  9.1 °C 46.6 °F /  8.1 °C 30.2in /  1022.9hPa West 10.5mph /  16.9km/h 13mph /  20.9km/h 93% 0in /  0.0mm
11:56 48.4 °F /  9.1 °C 46.6 °F /  8.1 °C 30.2in /  1021.9hPa WSW 10.3mph /  16.6km/h 13mph /  20.9km/h 93% 0in /  0.0mm
12:01 48.4 °F /  9.1 °C 46.6 °F /  8.1 °C 30.2in /  1021.9hPa West 9.8mph /  15.8km/h 13.4mph /  21.6km/h 93% 0in /  0.0mm
12:06 48.6 °F /  9.2 °C 46.6 °F /  8.1 °C 30.2in /  1021.9hPa West 10.3mph /  16.6km/h 13.4mph /  21.6km/h 93% 0in /  0.0mm
12:11 48.7 °F /  9.3 °C 46.8 °F /  8.2 °C 30.2in /  1021.9hPa WSW 13.4mph /  21.6km/h 15.2mph /  24.5km/h 93% 0in /  0.0mm
12:16 48.7 °F /  9.3 °C 46.8 °F /  8.2 °C 30.2in /  1021.9hPa West 9.8mph /  15.8km/h 15.2mph /  24.5km/h 93% 0in /  0.0mm
12:21 48.7 °F /  9.3 °C 46.8 °F /  8.2 °C 30.2in /  1021.9hPa WSW 10.7mph /  17.2km/h 13.4mph /  21.6km/h 93% 0in /  0.0mm
12:26 48.7 °F /  9.3 °C 46.8 °F /  8.2 °C 30.2in /  1021.9hPa WSW 10.3mph /  16.6km/h 12.8mph /  20.6km/h 93% 0in /  0.0mm
12:31 48.9 °F /  9.4 °C 46.9 °F /  8.3 °C 30.2in /  1021.9hPa WSW 14.3mph /  23.0km/h 14.3mph /  23.0km/h 93% 0in /  0.0mm
12:36 49.1 °F /  9.5 °C 46.9 °F /  8.3 °C 30.2in /  1021.9hPa WSW 10.3mph /  16.6km/h 14.3mph /  23.0km/h 92% 0in /  0.0mm
12:41 49.5 °F /  9.7 °C 47.1 °F /  8.4 °C 30.2in /  1021.9hPa WSW 10.3mph /  16.6km/h 14.3mph /  23.0km/h 92% 0in /  0.0mm
12:46 49.8 °F /  9.9 °C 47.7 °F /  8.7 °C 30.2in /  1021.9hPa WSW 12.3mph /  19.8km/h 13.6mph /  21.9km/h 92% 0in /  0.0mm
12:51 50.2 °F /  10.1 °C 47.8 °F /  8.8 °C 30.2in /  1021.9hPa WSW 10.1mph /  16.3km/h 12.8mph /  20.6km/h 92% 0in /  0.0mm
12:56 50.2 °F /  10.1 °C 47.8 °F /  8.8 °C 30.2in /  1021.9hPa WSW 12.1mph /  19.5km/h 17.4mph /  28.0km/h 92% 0in /  0.0mm
13:01 50.2 °F /  10.1 °C 47.7 °F /  8.7 °C 30.2in /  1021.9hPa West 11mph /  17.7km/h 17.4mph /  28.0km/h 91% 0in /  0.0mm
13:06 50.2 °F /  10.1 °C 47.7 °F /  8.7 °C 30.2in /  1021.9hPa West 13mph /  20.9km/h 14.8mph /  23.8km/h 91% 0in /  0.0mm
13:11 50.4 °F /  10.2 °C 47.8 °F /  8.8 °C 30.2in /  1021.9hPa WSW 10.7mph /  17.2km/h 13mph /  20.9km/h 91% 0in /  0.0mm
13:16 50.5 °F /  10.3 °C 48 °F /  8.9 °C 30.2in /  1021.9hPa West 10.1mph /  16.3km/h 12.8mph /  20.6km/h 91% 0in /  0.0mm
13:21 50.5 °F /  10.3 °C 47.7 °F /  8.7 °C 30.2in /  1021.9hPa West 7.8mph /  12.6km/h 14.5mph /  23.3km/h 90% 0in /  0.0mm
13:26 50.7 °F /  10.4 °C 47.8 °F /  8.8 °C 30.2in /  1021.9hPa WSW 12.5mph /  20.1km/h 14.5mph /  23.3km/h 90% 0in /  0.0mm
13:31 51.1 °F /  10.6 °C 48.2 °F /  9.0 °C 30.2in /  1021.9hPa WSW 12.1mph /  19.5km/h 14.1mph /  22.7km/h 90% 0in /  0.0mm
13:36 51.3 °F /  10.7 °C 48 °F /  8.9 °C 30.2in /  1021.9hPa West 12.8mph /  20.6km/h 15.9mph /  25.6km/h 89% 0in /  0.0mm
13:41 51.4 °F /  10.8 °C 48 °F /  8.9 °C 30.2in /  1021.9hPa WSW 8.5mph /  13.7km/h 15.9mph /  25.6km/h 88% 0in /  0.0mm
13:46 51.6 °F /  10.9 °C 48 °F /  8.9 °C 30.2in /  1021.9hPa West 9.2mph /  14.8km/h 14.5mph /  23.3km/h 88% 0in /  0.0mm
13:51 51.6 °F /  10.9 °C 48 °F /  8.9 °C 30.2in /  1021.9hPa SW 8.1mph /  13.0km/h 13.2mph /  21.2km/h 88% 0in /  0.0mm
13:56 51.6 °F /  10.9 °C 47.8 °F /  8.8 °C 30.2in /  1020.9hPa WSW 12.1mph /  19.5km/h 12.3mph /  19.8km/h 87% 0in /  0.0mm
14:01 51.4 °F /  10.8 °C 47.5 °F /  8.6 °C 30.2in /  1020.9hPa West 9.8mph /  15.8km/h 12.5mph /  20.1km/h 86% 0in /  0.0mm
14:06 51.3 °F /  10.7 °C 47.5 °F /  8.6 °C 30.2in /  1020.9hPa WSW 8.7mph /  14.0km/h 12.5mph /  20.1km/h 87% 0in /  0.0mm
14:11 51.1 °F /  10.6 °C 47.3 °F /  8.5 °C 30.2in /  1020.9hPa West 7.8mph /  12.6km/h 12.5mph /  20.1km/h 87% 0in /  0.0mm
14:16 51.1 °F /  10.6 °C 47.7 °F /  8.7 °C 30.2in /  1020.9hPa WSW 9.8mph /  15.8km/h 12.5mph /  20.1km/h 88% 0in /  0.0mm
14:21 51.1 °F /  10.6 °C 47.3 °F /  8.5 °C 30.2in /  1020.9hPa West 12.5mph /  20.1km/h 13.4mph /  21.6km/h 87% 0in /  0.0mm
14:26 51.3 °F /  10.7 °C 47.1 °F /  8.4 °C 30.2in /  1020.9hPa WSW 5.4mph /  8.7km/h 13.4mph /  21.6km/h 86% 0in /  0.0mm
14:36 51.4 °F /  10.8 °C 46.9 °F /  8.3 °C 30.2in /  1020.9hPa WNW 8.1mph /  13.0km/h 10.1mph /  16.3km/h 85% 0in /  0.0mm
14:41 51.6 °F /  10.9 °C 46.9 °F /  8.3 °C 30.2in /  1020.9hPa West 7.8mph /  12.6km/h 10.7mph /  17.2km/h 84% 0in /  0.0mm
14:46 51.8 °F /  11.0 °C 47.1 °F /  8.4 °C 30.2in /  1020.9hPa West 4.9mph /  7.9km/h 10.7mph /  17.2km/h 84% 0in /  0.0mm
14:51 52.2 °F /  11.2 °C 47.1 °F /  8.4 °C 30.2in /  1020.9hPa West 5.6mph /  9.0km/h 12.5mph /  20.1km/h 83% 0in /  0.0mm
14:56 52.3 °F /  11.3 °C 46.9 °F /  8.3 °C 30.2in /  1020.9hPa West 6mph /  9.7km/h 12.8mph /  20.6km/h 82% 0in /  0.0mm
15:01 52.5 °F /  11.4 °C 47.1 °F /  8.4 °C 30.2in /  1020.9hPa West 5.8mph /  9.3km/h 12.8mph /  20.6km/h 82% 0in /  0.0mm
15:06 52.5 °F /  11.4 °C 46.8 °F /  8.2 °C 30.2in /  1020.9hPa West 9.6mph /  15.4km/h 13mph /  20.9km/h 81% 0in /  0.0mm
15:11 52.5 °F /  11.4 °C 46.8 °F /  8.2 °C 30.1in /  1019.9hPa WNW 8.1mph /  13.0km/h 13mph /  20.9km/h 81% 0in /  0.0mm
15:16 52.5 °F /  11.4 °C 46.6 °F /  8.1 °C 30.1in /  1019.9hPa WNW 8.5mph /  13.7km/h 9.6mph /  15.4km/h 80% 0in /  0.0mm
15:21 52.5 °F /  11.4 °C 46 °F /  7.8 °C 30.1in /  1019.9hPa West 6.5mph /  10.5km/h 9.8mph /  15.8km/h 79% 0in /  0.0mm
15:26 52.5 °F /  11.4 °C 46.2 °F /  7.9 °C 30.2in /  1020.9hPa WNW 7.4mph /  11.9km/h 9.8mph /  15.8km/h 79% 0in /  0.0mm
15:31 52.5 °F /  11.4 °C 46.2 °F /  7.9 °C 30.2in /  1020.9hPa West 8.1mph /  13.0km/h 8.5mph /  13.7km/h 79% 0in /  0.0mm
15:36 52.5 °F /  11.4 °C 46.2 °F /  7.9 °C 30.2in /  1020.9hPa WNW 4mph /  6.4km/h 13.9mph /  22.4km/h 79% 0in /  0.0mm
15:41 52.5 °F /  11.4 °C 46 °F /  7.8 °C 30.2in /  1020.9hPa NE 4.9mph /  7.9km/h 13.9mph /  22.4km/h 78% 0in /  0.0mm
15:46 52.5 °F /  11.4 °C 45.9 °F /  7.7 °C 30.2in /  1020.9hPa West 3.6mph /  5.8km/h 12.3mph /  19.8km/h 78% 0in /  0.0mm
15:51 52.5 °F /  11.4 °C 46.2 °F /  7.9 °C 30.2in /  1020.9hPa West 5.6mph /  9.0km/h 12.3mph /  19.8km/h 79% 0in /  0.0mm
15:56 52.5 °F /  11.4 °C 45.9 °F /  7.7 °C 30.2in /  1020.9hPa WNW 5.8mph /  9.3km/h 10.3mph /  16.6km/h 78% 0in /  0.0mm
16:01 52.5 °F /  11.4 °C 46.2 °F /  7.9 °C 30.2in /  1020.9hPa West 5.4mph /  8.7km/h 10.3mph /  16.6km/h 79% 0in /  0.0mm
16:06 52.5 °F /  11.4 °C 45.9 °F /  7.7 °C 30.2in /  1020.9hPa West 7.6mph /  12.2km/h 10.1mph /  16.3km/h 78% 0in /  0.0mm
16:11 52.5 °F /  11.4 °C 46 °F /  7.8 °C 30.2in /  1020.9hPa WNW 3.8mph /  6.1km/h 10.1mph /  16.3km/h 79% 0in /  0.0mm
16:16 52.5 °F /  11.4 °C 46.2 °F /  7.9 °C 30.2in /  1020.9hPa West 10.5mph /  16.9km/h 12.1mph /  19.5km/h 79% 0in /  0.0mm
16:21 52.5 °F /  11.4 °C 45.7 °F /  7.6 °C 30.2in /  1020.9hPa WSW 9.4mph /  15.1km/h 14.1mph /  22.7km/h 77% 0in /  0.0mm
16:26 52.5 °F /  11.4 °C 46 °F /  7.8 °C 30.2in /  1020.9hPa West 4.3mph /  6.9km/h 14.1mph /  22.7km/h 78% 0in /  0.0mm
16:31 52.3 °F /  11.3 °C 45.7 °F /  7.6 °C 30.2in /  1020.9hPa West 6.5mph /  10.5km/h 12.8mph /  20.6km/h 78% 0in /  0.0mm
16:37 52.2 °F /  11.2 °C 45.1 °F /  7.3 °C 30.2in /  1020.9hPa WSW 7.4mph /  11.9km/h 11.4mph /  18.3km/h 77% 0in /  0.0mm
16:42 52 °F /  11.1 °C 45 °F /  7.2 °C 30.2in /  1020.9hPa West 8.5mph /  13.7km/h 13.4mph /  21.6km/h 77% 0in /  0.0mm
16:47 52 °F /  11.1 °C 45 °F /  7.2 °C 30.2in /  1020.9hPa West 6.5mph /  10.5km/h 13.4mph /  21.6km/h 77% 0in /  0.0mm
16:52 51.8 °F /  11.0 °C 45.1 °F /  7.3 °C 30.2in /  1020.9hPa West 6.7mph /  10.8km/h 11mph /  17.7km/h 78% 0in /  0.0mm
16:57 51.6 °F /  10.9 °C 45.3 °F /  7.4 °C 30.2in /  1020.9hPa West 8.5mph /  13.7km/h 11mph /  17.7km/h 79% 0in /  0.0mm
17:02 51.6 °F /  10.9 °C 45.7 °F /  7.6 °C 30.2in /  1020.9hPa West 6.5mph /  10.5km/h 10.1mph /  16.3km/h 80% 0in /  0.0mm
17:07 51.3 °F /  10.7 °C 45.7 °F /  7.6 °C 30.2in /  1020.9hPa West 8.5mph /  13.7km/h 11mph /  17.7km/h 81% 0in /  0.0mm
17:12 51.3 °F /  10.7 °C 45.7 °F /  7.6 °C 30.2in /  1021.9hPa WSW 8.1mph /  13.0km/h 12.3mph /  19.8km/h 81% 0in /  0.0mm
17:17 51.3 °F /  10.7 °C 45.7 °F /  7.6 °C 30.2in /  1021.9hPa West 9.6mph /  15.4km/h 12.3mph /  19.8km/h 81% 0in /  0.0mm
17:22 51.1 °F /  10.6 °C 45.7 °F /  7.6 °C 30.2in /  1021.9hPa WSW 6.5mph /  10.5km/h 11mph /  17.7km/h 82% 0in /  0.0mm
17:27 50.9 °F /  10.5 °C 45.7 °F /  7.6 °C 30.2in /  1020.9hPa WSW 7.4mph /  11.9km/h 10.5mph /  16.9km/h 82% 0in /  0.0mm
17:32 50.9 °F /  10.5 °C 45.7 °F /  7.6 °C 30.2in /  1020.9hPa WSW 8.1mph /  13.0km/h 11mph /  17.7km/h 82% 0in /  0.0mm
17:37 50.7 °F /  10.4 °C 45.3 °F /  7.4 °C 30.1in /  1019.9hPa West 6mph /  9.7km/h 11mph /  17.7km/h 82% 0in /  0.0mm
17:42 50.5 °F /  10.3 °C 45.7 °F /  7.6 °C 30.1in /  1019.9hPa West 6.7mph /  10.8km/h 10.5mph /  16.9km/h 83% 0in /  0.0mm
17:47 50.4 °F /  10.2 °C 45.3 °F /  7.4 °C 30.1in /  1019.9hPa WSW 9.4mph /  15.1km/h 10.1mph /  16.3km/h 83% 0in /  0.0mm
17:52 50.2 °F /  10.1 °C 45.1 °F /  7.3 °C 30.2in /  1020.9hPa WSW 8.5mph /  13.7km/h 10.5mph /  16.9km/h 83% 0in /  0.0mm
17:57 50 °F /  10.0 °C 45 °F /  7.2 °C 30.2in /  1020.9hPa WSW 5.6mph /  9.0km/h 10.5mph /  16.9km/h 83% 0in /  0.0mm
18:02 49.8 °F /  9.9 °C 45.1 °F /  7.3 °C 30.2in /  1020.9hPa WSW 6mph /  9.7km/h 10.1mph /  16.3km/h 84% 0in /  0.0mm
18:07 49.8 °F /  9.9 °C 45.1 °F /  7.3 °C 30.2in /  1020.9hPa WSW 7.6mph /  12.2km/h 10.5mph /  16.9km/h 84% 0in /  0.0mm
18:12 49.6 °F /  9.8 °C 45 °F /  7.2 °C 30.2in /  1020.9hPa West 8.1mph /  13.0km/h 11mph /  17.7km/h 84% 0in /  0.0mm
18:17 49.5 °F /  9.7 °C 45.1 °F /  7.3 °C 30.2in /  1020.9hPa WSW 10.1mph /  16.3km/h 12.3mph /  19.8km/h 85% 0in /  0.0mm
18:22 49.3 °F /  9.6 °C 45 °F /  7.2 °C 30.1in /  1019.9hPa WSW 6.3mph /  10.1km/h 12.3mph /  19.8km/h 85% 0in /  0.0mm
18:27 49.1 °F /  9.5 °C 44.8 °F /  7.1 °C 30.1in /  1019.9hPa West 6.5mph /  10.5km/h 10.5mph /  16.9km/h 85% 0in /  0.0mm
18:32 49.1 °F /  9.5 °C 45.1 °F /  7.3 °C 30.1in /  1019.9hPa West 8.5mph /  13.7km/h 10.5mph /  16.9km/h 86% 0in /  0.0mm
18:37 48.9 °F /  9.4 °C 44.6 °F /  7.0 °C 30.2in /  1020.9hPa West 8.5mph /  13.7km/h 10.5mph /  16.9km/h 85% 0in /  0.0mm
18:42 48.9 °F /  9.4 °C 44.6 °F /  7.0 °C 30.2in /  1020.9hPa WSW 8.5mph /  13.7km/h 11mph /  17.7km/h 85% 0in /  0.0mm
18:47 48.6 °F /  9.2 °C 44.2 °F /  6.8 °C 30.2in /  1020.9hPa West 6.3mph /  10.1km/h 11mph /  17.7km/h 85% 0in /  0.0mm
18:52 48.4 °F /  9.1 °C 44.1 °F /  6.7 °C 30.2in /  1020.9hPa West 7.2mph /  11.6km/h 9.6mph /  15.4km/h 85% 0in /  0.0mm
18:57 48.2 °F /  9.0 °C 43.9 °F /  6.6 °C 30.2in /  1020.9hPa WSW 5.4mph /  8.7km/h 9.8mph /  15.8km/h 85% 0in /  0.0mm
19:02 48 °F /  8.9 °C 43.9 °F /  6.6 °C 30.2in /  1020.9hPa WSW 6.5mph /  10.5km/h 9.8mph /  15.8km/h 85% 0in /  0.0mm
19:07 47.7 °F /  8.7 °C 43.7 °F /  6.5 °C 30.2in /  1021.9hPa WSW 8.5mph /  13.7km/h 9.8mph /  15.8km/h 86% 0in /  0.0mm
19:12 47.5 °F /  8.6 °C 43.5 °F /  6.4 °C 30.2in /  1021.9hPa WSW 7.8mph /  12.6km/h 10.1mph /  16.3km/h 86% 0in /  0.0mm
19:17 47.1 °F /  8.4 °C 43.2 °F /  6.2 °C 30.2in /  1021.9hPa WSW 8.5mph /  13.7km/h 10.1mph /  16.3km/h 86% 0in /  0.0mm
19:22 46.8 °F /  8.2 °C 42.8 °F /  6.0 °C 30.2in /  1020.9hPa West 6mph /  9.7km/h 8.7mph /  14.0km/h 86% 0in /  0.0mm
19:27 46.6 °F /  8.1 °C 42.4 °F /  5.8 °C 30.2in /  1020.9hPa WSW 5.4mph /  8.7km/h 8.7mph /  14.0km/h 86% 0in /  0.0mm
19:32 46 °F /  7.8 °C 42.3 °F /  5.7 °C 30.2in /  1020.9hPa WSW 4.9mph /  7.9km/h 6.5mph /  10.5km/h 86% 0in /  0.0mm
19:37 45.9 °F /  7.7 °C 42.1 °F /  5.6 °C 30.2in /  1020.9hPa WSW 3.6mph /  5.8km/h 5.8mph /  9.3km/h 87% 0in /  0.0mm
19:42 45.1 °F /  7.3 °C 41.2 °F /  5.1 °C 30.2in /  1020.9hPa WSW 3.4mph /  5.5km/h 4.9mph /  7.9km/h 86% 0in /  0.0mm
19:47 44.4 °F /  6.9 °C 40.6 °F /  4.8 °C 30.2in /  1020.9hPa WSW 4.3mph /  6.9km/h 4.3mph /  6.9km/h 86% 0in /  0.0mm
19:52 44.2 °F /  6.8 °C 40.6 °F /  4.8 °C 30.2in /  1021.9hPa WSW 4.5mph /  7.2km/h 4.9mph /  7.9km/h 87% 0in /  0.0mm
19:57 44.1 °F /  6.7 °C 40.6 °F /  4.8 °C 30.2in /  1021.9hPa WSW 4mph /  6.4km/h 4.9mph /  7.9km/h 88% 0in /  0.0mm
20:02 43.5 °F /  6.4 °C 40.1 °F /  4.5 °C 30.2in /  1021.9hPa WSW 3.8mph /  6.1km/h 4.9mph /  7.9km/h 88% 0in /  0.0mm
20:07 43.3 °F /  6.3 °C 40.3 °F /  4.6 °C 30.2in /  1021.9hPa WSW 3.8mph /  6.1km/h 4.3mph /  6.9km/h 89% 0in /  0.0mm
20:12 43.3 °F /  6.3 °C 40.6 °F /  4.8 °C 30.2in /  1021.9hPa WSW 4.3mph /  6.9km/h 4.7mph /  7.6km/h 90% 0in /  0.0mm
20:17 43.3 °F /  6.3 °C 40.8 °F /  4.9 °C 30.2in /  1021.9hPa WSW 4.7mph /  7.6km/h 5.8mph /  9.3km/h 91% 0in /  0.0mm
20:22 43.5 °F /  6.4 °C 41 °F /  5.0 °C 30.2in /  1021.9hPa WSW 4.7mph /  7.6km/h 5.8mph /  9.3km/h 91% 0in /  0.0mm
20:27 43.5 °F /  6.4 °C 41.5 °F /  5.3 °C 30.2in /  1021.9hPa WSW 3.8mph /  6.1km/h 5.8mph /  9.3km/h 92% 0in /  0.0mm
20:32 43.9 °F /  6.6 °C 41.9 °F /  5.5 °C 30.2in /  1021.9hPa WSW 4.3mph /  6.9km/h 5.6mph /  9.0km/h 93% 0in /  0.0mm
20:37 44.2 °F /  6.8 °C 42.3 °F /  5.7 °C 30.2in /  1021.9hPa WSW 4.5mph /  7.2km/h 6mph /  9.7km/h 93% 0in /  0.0mm
20:42 44.2 °F /  6.8 °C 42.4 °F /  5.8 °C 30.2in /  1021.9hPa WSW 4.9mph /  7.9km/h 7.2mph /  11.6km/h 93% 0in /  0.0mm
20:47 44.8 °F /  7.1 °C 43.2 °F /  6.2 °C 30.2in /  1021.9hPa WSW 4.9mph /  7.9km/h 7.2mph /  11.6km/h 94% 0in /  0.0mm
20:52 45 °F /  7.2 °C 43.3 °F /  6.3 °C 30.2in /  1021.9hPa WSW 5.4mph /  8.7km/h 6.7mph /  10.8km/h 94% 0in /  0.0mm
20:57 45.1 °F /  7.3 °C 43.3 °F /  6.3 °C 30.2in /  1021.9hPa WSW 6mph /  9.7km/h 6.3mph /  10.1km/h 94% 0in /  0.0mm
21:02 45.1 °F /  7.3 °C 43.3 °F /  6.3 °C 30.2in /  1021.9hPa WSW 7.2mph /  11.6km/h 7.2mph /  11.6km/h 94% 0in /  0.0mm
21:07 45.1 °F /  7.3 °C 43.9 °F /  6.6 °C 30.2in /  1021.9hPa WSW 4.9mph /  7.9km/h 7.2mph /  11.6km/h 95% 0in /  0.0mm
21:12 45.7 °F /  7.6 °C 44.2 °F /  6.8 °C 30.2in /  1021.9hPa WSW 5.8mph /  9.3km/h 7.2mph /  11.6km/h 95% 0in /  0.0mm
21:17 45.7 °F /  7.6 °C 44.2 °F /  6.8 °C 30.2in /  1021.9hPa WSW 5.8mph /  9.3km/h 6.5mph /  10.5km/h 95% 0in /  0.0mm
21:22 45.9 °F /  7.7 °C 44.4 °F /  6.9 °C 30.2in /  1021.9hPa West 5.8mph /  9.3km/h 8.5mph /  13.7km/h 95% 0in /  0.0mm
21:23 45.9 °F /  7.7 °C 44.4 °F /  6.9 °C 30.2in /  1021.9hPa WSW 7.4mph /  11.9km/h 8.5mph /  13.7km/h 95% 0in /  0.0mm
21:28 45.9 °F /  7.7 °C 44.6 °F /  7.0 °C 30.2in /  1021.9hPa WSW 6.3mph /  10.1km/h 8.5mph /  13.7km/h 95% 0in /  0.0mm
21:33 45.9 °F /  7.7 °C 45 °F /  7.2 °C 30.2in /  1021.9hPa WSW 6mph /  9.7km/h 7.4mph /  11.9km/h 96% 0in /  0.0mm
21:38 45.9 °F /  7.7 °C 45 °F /  7.2 °C 30.2in /  1021.9hPa WSW 5.4mph /  8.7km/h 7.2mph /  11.6km/h 96% 0in /  0.0mm
21:43 46 °F /  7.8 °C 44.8 °F /  7.1 °C 30.2in /  1021.9hPa WSW 4.3mph /  6.9km/h 7.2mph /  11.6km/h 95% 0in /  0.0mm
21:48 46 °F /  7.8 °C 44.8 °F /  7.1 °C 30.2in /  1021.9hPa WSW 6.3mph /  10.1km/h 7.8mph /  12.6km/h 95% 0in /  0.0mm
21:53 46 °F /  7.8 °C 44.8 °F /  7.1 °C 30.2in /  1021.9hPa WSW 6.3mph /  10.1km/h 7.8mph /  12.6km/h 95% 0in /  0.0mm
21:58 46.2 °F /  7.9 °C 45 °F /  7.2 °C 30.2in /  1021.9hPa WSW 7.4mph /  11.9km/h 8.7mph /  14.0km/h 95% 0in /  0.0mm
22:03 46.6 °F /  8.1 °C 45.3 °F /  7.4 °C 30.2in /  1021.9hPa WSW 7.8mph /  12.6km/h 8.7mph /  14.0km/h 96% 0in /  0.0mm
22:08 46.6 °F /  8.1 °C 45.3 °F /  7.4 °C 30.2in /  1021.9hPa WSW 6mph /  9.7km/h 8.7mph /  14.0km/h 96% 0in /  0.0mm
22:13 46.6 °F /  8.1 °C 45.7 °F /  7.6 °C 30.2in /  1021.9hPa SW 4.9mph /  7.9km/h 8.7mph /  14.0km/h 96% 0in /  0.0mm
22:18 46.6 °F /  8.1 °C 45.7 °F /  7.6 °C 30.2in /  1021.9hPa WSW 4.9mph /  7.9km/h 7.8mph /  12.6km/h 96% 0in /  0.0mm
22:23 46.8 °F /  8.2 °C 45.7 °F /  7.6 °C 30.2in /  1021.9hPa SW 4mph /  6.4km/h 7.6mph /  12.2km/h 96% 0in /  0.0mm
22:28 46.8 °F /  8.2 °C 45.7 °F /  7.6 °C 30.2in /  1021.9hPa SW 4.7mph /  7.6km/h 6mph /  9.7km/h 96% 0in /  0.0mm
22:33 46.8 °F /  8.2 °C 45.7 °F /  7.6 °C 30.2in /  1021.9hPa SW 4.3mph /  6.9km/h 6.3mph /  10.1km/h 96% 0in /  0.0mm
22:38 46.8 °F /  8.2 °C 45.7 °F /  7.6 °C 30.2in /  1021.9hPa SW 6.3mph /  10.1km/h 6.5mph /  10.5km/h 96% 0in /  0.0mm
22:43 46.9 °F /  8.3 °C 45.7 °F /  7.6 °C 30.2in /  1021.9hPa SW 4.3mph /  6.9km/h 6.5mph /  10.5km/h 95% 0in /  0.0mm
22:48 46.9 °F /  8.3 °C 45.7 °F /  7.6 °C 30.2in /  1021.9hPa SW 5.6mph /  9.0km/h 6mph /  9.7km/h 95% 0in /  0.0mm
22:53 46.9 °F /  8.3 °C 45.7 °F /  7.6 °C 30.2in /  1021.9hPa Calm   5.6mph /  9.0km/h 95% 0in /  0.0mm
22:58 46.9 °F /  8.3 °C 45.7 °F /  7.6 °C 30.2in /  1021.9hPa Calm   5.6mph /  9.0km/h 95% 0in /  0.0mm
23:03 46.9 °F /  8.3 °C 45.7 °F /  7.6 °C 30.2in /  1021.9hPa South 2.5mph /  4.0km/h 6mph /  9.7km/h 95% 0in /  0.0mm
23:08 46.9 °F /  8.3 °C 45.7 °F /  7.6 °C 30.2in /  1021.9hPa Calm   6.3mph /  10.1km/h 95% 0in /  0.0mm
23:13 46.9 °F /  8.3 °C 45.7 °F /  7.6 °C 30.2in /  1021.9hPa SW 4.3mph /  6.9km/h 6.3mph /  10.1km/h 95% 0in /  0.0mm
23:18 46.9 °F /  8.3 °C 45.7 °F /  7.6 °C 30.2in /  1021.9hPa WSW 4.9mph /  7.9km/h 7.2mph /  11.6km/h 95% 0in /  0.0mm
23:23 46.9 °F /  8.3 °C 45.7 °F /  7.6 °C 30.2in /  1021.9hPa Calm   7.2mph /  11.6km/h 95% 0in /  0.0mm
23:28 46.9 °F /  8.3 °C 45.7 °F /  7.6 °C 30.2in /  1021.9hPa SSW 3.1mph /  5.0km/h 6mph /  9.7km/h 95% 0in /  0.0mm
23:33 46.9 °F /  8.3 °C 45.7 °F /  7.6 °C 30.2in /  1021.9hPa SW 5.4mph /  8.7km/h 6.5mph /  10.5km/h 95% 0in /  0.0mm
23:38 46.9 °F /  8.3 °C 45.7 °F /  7.6 °C 30.2in /  1020.9hPa Calm   6.5mph /  10.5km/h 95% 0in /  0.0mm
23:43 46.9 °F /  8.3 °C 45.7 °F /  7.6 °C 30.2in /  1020.9hPa SSW 4mph /  6.4km/h 6mph /  9.7km/h 95% 0in /  0.0mm
23:48 46.9 °F /  8.3 °C 45.7 °F /  7.6 °C 30.2in /  1020.9hPa SSW 3.8mph /  6.1km/h 6mph /  9.7km/h 95% 0in /  0.0mm
23:53 46.9 °F /  8.3 °C 45.7 °F /  7.6 °C 30.2in /  1020.9hPa WSW 5.6mph /  9.0km/h 6mph /  9.7km/h 95% 0in /  0.0mm
23:58 46.9 °F /  8.3 °C 45.7 °F /  7.6 °C 30.2in /  1020.9hPa SW 6mph /  9.7km/h 7.6mph /  12.2km/h 95% 0in /  0.0mm
Données Historique de Météo Turbie

Mise a jour : 20/05/2018 19:42:12
Généré par Cumulus 1.9.4 (1099)